Time;durP1;ratioP1;P1;durP2;ratioP2;P2;SDS_P1;SDS_P2;PMS_P1;PMS_P2;Temp;Humidity;BMP_temperature;BMP_pressure;BME280_temperature;BME280_humidity;BME280_pressure;Samples;Min_cycle;Max_cycle;Signal;HPM_P1;HPM_P2
2021/12/23 00:00:47;;;;;;;;;;;-8.50;99.90;;;;;;5076140;28;20062;-75
2021/12/23 00:03:13;;;;;;;;;;;-8.60;99.90;;;;;;5087741;28;20299;-74
2021/12/23 00:05:41;;;;;;;;;;;-8.50;99.90;;;;;;5059985;28;19988;-74
2021/12/23 00:08:06;;;;;;;;;;;-8.60;99.90;;;;;;5089772;28;19965;-74
2021/12/23 00:10:32;;;;;;;;;;;-8.60;99.90;;;;;;5071375;28;19920;-75
2021/12/23 00:12:58;;;;;;;;;;;-8.70;99.90;;;;;;5083916;28;19912;-75
2021/12/23 00:18:02;;;;;;;;;;;-8.70;99.90;;;;;;5092487;28;19958;-76
2021/12/23 00:25:46;;;;;;;;;;;-8.60;99.90;;;;;;5080735;28;19923;-75
2021/12/23 00:28:11;;;;;;;;;;;-8.50;99.90;;;;;;5064498;28;19916;-75
2021/12/23 00:30:37;;;;;;;;;;;-8.60;99.90;;;;;;5075353;28;19908;-75
2021/12/23 00:33:02;;;;;;;;;;;-8.60;99.90;;;;;;5087387;28;19959;-75
2021/12/23 00:35:28;;;;;;;;;;;-8.50;99.90;;;;;;5084997;28;19930;-75
2021/12/23 00:38:02;;;;;;;;;;;-8.60;99.90;;;;;;5073873;28;19912;-75
2021/12/23 00:40:27;;;;;;;;;;;-7.40;99.90;;;;;;5061799;28;19966;-75
2021/12/23 00:42:53;;;;;;;;;;;-8.50;99.90;;;;;;5086775;28;19919;-75
2021/12/23 00:45:19;;;;;;;;;;;-8.50;99.90;;;;;;5084692;28;19912;-74
2021/12/23 00:47:44;;;;;;;;;;;-8.50;99.90;;;;;;5093143;28;19947;-75
2021/12/23 00:50:10;;;;;;;;;;;-8.50;99.90;;;;;;5061985;28;19947;-75
2021/12/23 00:52:36;;;;;;;;;;;-8.50;99.90;;;;;;5064905;28;19912;-76
2021/12/23 00:55:05;;;;;;;;;;;-8.50;99.90;;;;;;5078172;28;20347;-75
2021/12/23 00:57:35;;;;;;;;;;;-8.60;99.90;;;;;;5089482;28;19912;-76
2021/12/23 01:00:03;;;;;;;;;;;-8.60;99.90;;;;;;5073645;28;19905;-74
2021/12/23 01:02:31;;;;;;;;;;;-8.60;99.90;;;;;;5081269;28;19912;-75
2021/12/23 01:04:57;;;;;;;;;;;-8.60;99.90;;;;;;5059688;28;19927;-75
2021/12/23 01:07:24;;;;;;;;;;;-8.60;99.90;;;;;;5088827;28;19915;-76
2021/12/23 01:09:49;;;;;;;;;;;-8.70;99.90;;;;;;5083540;28;19907;-74
2021/12/23 01:12:19;;;;;;;;;;;-8.70;99.90;;;;;;5078766;28;19919;-74
2021/12/23 01:19:51;;;;;;;;;;;-8.90;99.90;;;;;;5082807;28;20294;-75
2021/12/23 01:22:17;;;;;;;;;;;-8.80;99.90;;;;;;5078053;28;20326;-75
2021/12/23 01:24:42;;;;;;;;;;;-8.70;99.90;;;;;;5080949;28;19941;-75
2021/12/23 01:27:08;;;;;;;;;;;-8.70;99.90;;;;;;5064758;28;20014;-75
2021/12/23 01:29:34;;;;;;;;;;;-8.70;99.90;;;;;;5062544;28;19915;-76
2021/12/23 01:32:03;;;;;;;;;;;-8.80;99.90;;;;;;5072667;28;19912;-75
2021/12/23 01:34:29;;;;;;;;;;;-8.80;99.90;;;;;;5078583;28;19909;-75
2021/12/23 01:36:54;;;;;;;;;;;-8.80;99.90;;;;;;5080522;28;19969;-75
2021/12/23 01:39:20;;;;;;;;;;;-8.80;99.90;;;;;;5086165;28;19916;-75
2021/12/23 01:41:45;;;;;;;;;;;-8.80;99.90;;;;;;5088371;28;19958;-75
2021/12/23 01:44:11;;;;;;;;;;;-8.80;99.90;;;;;;5088985;28;19908;-75
2021/12/23 01:46:36;;;;;;;;;;;-8.60;99.90;;;;;;5056466;28;19927;-75
2021/12/23 01:49:02;;;;;;;;;;;-8.70;99.90;;;;;;5088445;28;19939;-75
2021/12/23 01:51:28;;;;;;;;;;;-8.70;99.90;;;;;;5067160;28;19911;-75
2021/12/23 01:53:54;;;;;;;;;;;-8.60;99.90;;;;;;5090211;28;19908;-75
2021/12/23 01:56:19;;;;;;;;;;;-8.60;99.90;;;;;;5064524;28;20037;-75
2021/12/23 01:58:45;;;;;;;;;;;-8.60;99.90;;;;;;5090629;28;19912;-75
2021/12/23 02:01:11;;;;;;;;;;;-8.70;99.90;;;;;;5064021;28;19908;-75
2021/12/23 02:03:38;;;;;;;;;;;-8.70;99.90;;;;;;5091734;28;20331;-75
2021/12/23 02:06:03;;;;;;;;;;;-8.70;99.90;;;;;;5056804;28;19920;-75
2021/12/23 02:08:29;;;;;;;;;;;-8.70;99.90;;;;;;5065757;28;19912;-75
2021/12/23 02:10:55;;;;;;;;;;;-8.70;99.90;;;;;;5062533;28;20413;-74
2021/12/23 02:13:21;;;;;;;;;;;-8.70;99.90;;;;;;5073333;28;19918;-75
2021/12/23 02:15:47;;;;;;;;;;;-8.60;99.90;;;;;;5076957;28;19909;-75
2021/12/23 02:18:12;;;;;;;;;;;-8.60;99.90;;;;;;5072262;28;19923;-74
2021/12/23 02:20:38;;;;;;;;;;;-8.70;99.90;;;;;;5064667;28;19907;-75
2021/12/23 02:23:04;;;;;;;;;;;-8.70;99.90;;;;;;5073003;28;19923;-75
2021/12/23 02:25:29;;;;;;;;;;;-8.70;99.90;;;;;;5076315;28;19918;-75
2021/12/23 02:27:56;;;;;;;;;;;-8.70;99.90;;;;;;5066575;28;19913;-75
2021/12/23 02:30:24;;;;;;;;;;;-8.80;99.90;;;;;;5078546;28;19998;-75
2021/12/23 02:32:50;;;;;;;;;;;-8.80;99.90;;;;;;5090811;28;19916;-75
2021/12/23 02:35:17;;;;;;;;;;;-8.80;99.90;;;;;;5076207;28;20003;-75
2021/12/23 02:37:43;;;;;;;;;;;-8.80;99.90;;;;;;5070060;28;19924;-74
2021/12/23 02:40:09;;;;;;;;;;;-8.80;99.90;;;;;;5057387;28;20226;-76
2021/12/23 02:42:35;;;;;;;;;;;-8.80;99.90;;;;;;5072086;28;19923;-74
2021/12/23 02:45:03;;;;;;;;;;;-8.90;99.90;;;;;;5065209;28;19908;-75
2021/12/23 02:47:30;;;;;;;;;;;-8.90;99.90;;;;;;5050314;28;19913;-74
2021/12/23 02:49:55;;;;;;;;;;;-8.90;99.90;;;;;;5070010;28;19918;-75
2021/12/23 02:52:21;;;;;;;;;;;-8.90;99.90;;;;;;5088661;28;20007;-75
2021/12/23 02:54:54;;;;;;;;;;;-8.90;99.90;;;;;;5066208;28;19905;-75
2021/12/23 02:57:19;;;;;;;;;;;-9.00;99.90;;;;;;5054480;28;19952;-75
2021/12/23 02:59:45;;;;;;;;;;;-7.80;99.90;;;;;;5067147;28;20466;-75
2021/12/23 03:02:10;;;;;;;;;;;-9.00;99.90;;;;;;5087015;28;19912;-75
2021/12/23 03:04:36;;;;;;;;;;;-9.00;99.90;;;;;;5066664;28;19908;-75
2021/12/23 03:07:02;;;;;;;;;;;-9.00;99.90;;;;;;5055434;28;19920;-74
2021/12/23 03:09:27;;;;;;;;;;;-9.00;99.90;;;;;;5073364;28;19936;-75
2021/12/23 03:11:53;;;;;;;;;;;-8.80;99.90;;;;;;5064733;28;20155;-75
2021/12/23 03:14:18;;;;;;;;;;;-9.00;99.90;;;;;;5084416;28;20386;-75
2021/12/23 03:16:46;;;;;;;;;;;-9.00;99.90;;;;;;5056621;28;20240;-74
2021/12/23 03:19:11;;;;;;;;;;;-9.00;99.90;;;;;;5055687;28;19915;-75
2021/12/23 03:21:37;;;;;;;;;;;-9.00;99.90;;;;;;5079991;28;19904;-75
2021/12/23 03:24:03;;;;;;;;;;;-8.80;99.90;;;;;;5086612;28;19913;-76
2021/12/23 03:26:28;;;;;;;;;;;-8.90;99.90;;;;;;5051421;28;20370;-77
2021/12/23 03:28:54;;;;;;;;;;;-8.70;99.90;;;;;;5076902;28;19911;-75
2021/12/23 03:31:19;;;;;;;;;;;-7.70;99.90;;;;;;5058608;28;19904;-74
2021/12/23 03:33:45;;;;;;;;;;;-9.00;99.90;;;;;;5088873;28;20287;-76
2021/12/23 03:36:11;;;;;;;;;;;-9.10;99.90;;;;;;5070602;28;19953;-74
2021/12/23 03:38:36;;;;;;;;;;;-9.10;99.90;;;;;;5059870;28;19924;-74
2021/12/23 03:41:02;;;;;;;;;;;-9.10;99.90;;;;;;5073898;28;20276;-74
2021/12/23 03:43:29;;;;;;;;;;;-9.00;99.90;;;;;;5090199;28;19916;-73
2021/12/23 03:45:55;;;;;;;;;;;-9.10;99.90;;;;;;5070972;28;20353;-75
2021/12/23 03:48:21;;;;;;;;;;;-9.20;99.90;;;;;;5049072;28;19913;-75
2021/12/23 03:50:47;;;;;;;;;;;-9.20;99.90;;;;;;5052730;28;19962;-75
2021/12/23 03:53:14;;;;;;;;;;;-9.20;99.90;;;;;;5057207;28;20002;-75
2021/12/23 03:55:39;;;;;;;;;;;-7.10;99.90;;;;;;5073207;28;20315;-75
2021/12/23 03:58:05;;;;;;;;;;;-9.30;99.90;;;;;;5050317;28;20019;-75
2021/12/23 04:00:31;;;;;;;;;;;-9.40;99.90;;;;;;5050347;28;19977;-75
2021/12/23 04:02:57;;;;;;;;;;;-9.40;99.90;;;;;;5072134;28;19920;-75
2021/12/23 04:05:22;;;;;;;;;;;-9.50;99.90;;;;;;5063448;28;19912;-76
2021/12/23 04:07:48;;;;;;;;;;;-9.50;99.90;;;;;;5075155;28;19960;-76
2021/12/23 04:10:15;;;;;;;;;;;-9.50;99.90;;;;;;5044568;28;19962;-75
2021/12/23 04:12:42;;;;;;;;;;;-9.60;99.90;;;;;;5067319;28;19916;-75
2021/12/23 04:15:08;;;;;;;;;;;-9.60;99.90;;;;;;5063113;28;19904;-75
2021/12/23 04:17:34;;;;;;;;;;;-9.60;99.90;;;;;;5066410;28;19919;-74
2021/12/23 04:20:13;;;;;;;;;;;-9.70;99.90;;;;;;5053978;28;19912;-74
2021/12/23 04:22:39;;;;;;;;;;;-9.70;99.90;;;;;;5066673;28;19912;-75
2021/12/23 04:25:04;;;;;;;;;;;-9.60;99.90;;;;;;5081134;28;19912;-75
2021/12/23 04:27:30;;;;;;;;;;;-9.60;99.90;;;;;;5086802;28;19916;-74
2021/12/23 04:29:55;;;;;;;;;;;-9.70;99.90;;;;;;5066046;28;19955;-75
2021/12/23 04:32:21;;;;;;;;;;;-9.80;99.90;;;;;;5081806;28;19908;-75
2021/12/23 04:34:47;;;;;;;;;;;-9.90;99.90;;;;;;5062809;28;19921;-74
2021/12/23 04:37:13;;;;;;;;;;;-9.90;99.90;;;;;;5068801;28;19916;-74
2021/12/23 04:39:39;;;;;;;;;;;-9.90;99.90;;;;;;5051325;28;19917;-75
2021/12/23 04:42:05;;;;;;;;;;;-9.90;99.90;;;;;;5066031;28;19922;-75
2021/12/23 04:44:30;;;;;;;;;;;-9.90;99.90;;;;;;5065951;28;20078;-74
2021/12/23 04:46:56;;;;;;;;;;;-9.80;99.90;;;;;;5056962;28;19923;-74
2021/12/23 04:49:23;;;;;;;;;;;-9.80;99.90;;;;;;5054370;28;19920;-75
2021/12/23 04:51:48;;;;;;;;;;;-9.80;99.90;;;;;;5061488;28;20231;-74
2021/12/23 04:54:14;;;;;;;;;;;-9.30;99.90;;;;;;5053428;28;19909;-75
2021/12/23 04:56:39;;;;;;;;;;;-9.90;99.90;;;;;;5046129;28;19913;-74
2021/12/23 04:59:05;;;;;;;;;;;-9.90;99.90;;;;;;5036198;28;19983;-75
2021/12/23 05:01:32;;;;;;;;;;;-9.90;99.90;;;;;;5055517;28;19912;-75
2021/12/23 05:03:58;;;;;;;;;;;-9.90;99.90;;;;;;5070259;28;19916;-74
2021/12/23 05:06:24;;;;;;;;;;;-10.00;99.90;;;;;;5055433;28;19909;-75
2021/12/23 05:08:50;;;;;;;;;;;-9.90;99.90;;;;;;5071532;28;20011;-74
2021/12/23 05:11:16;;;;;;;;;;;-9.90;99.90;;;;;;5055090;28;20366;-74
2021/12/23 05:13:42;;;;;;;;;;;-9.90;99.90;;;;;;5070889;28;19923;-75
2021/12/23 05:16:08;;;;;;;;;;;-9.90;99.90;;;;;;5054652;28;19995;-74
2021/12/23 05:18:33;;;;;;;;;;;-9.90;99.90;;;;;;5067810;28;20310;-75
2021/12/23 05:21:00;;;;;;;;;;;-9.80;99.90;;;;;;5049884;28;19961;-74
2021/12/23 05:23:25;;;;;;;;;;;-9.90;99.90;;;;;;5052149;28;19968;-75
2021/12/23 05:25:51;;;;;;;;;;;-10.00;99.90;;;;;;5052044;28;19916;-76
2021/12/23 05:28:16;;;;;;;;;;;-10.00;99.90;;;;;;5044604;28;20003;-74
2021/12/23 05:30:42;;;;;;;;;;;-10.00;99.90;;;;;;5055537;28;20341;-74
2021/12/23 05:33:08;;;;;;;;;;;-10.10;99.90;;;;;;5070764;28;19919;-74
2021/12/23 05:35:34;;;;;;;;;;;-10.10;99.90;;;;;;5056219;28;19909;-74
2021/12/23 05:37:59;;;;;;;;;;;-10.00;99.90;;;;;;5063969;28;19951;-74
2021/12/23 05:40:28;;;;;;;;;;;-8.80;99.90;;;;;;5061812;28;19942;-74
2021/12/23 05:42:55;;;;;;;;;;;-10.00;99.90;;;;;;5041830;28;19912;-74
2021/12/23 05:45:20;;;;;;;;;;;-10.00;99.90;;;;;;5059899;28;19915;-74
2021/12/23 05:47:46;;;;;;;;;;;-10.00;99.90;;;;;;5062117;28;19916;-74
2021/12/23 05:50:13;;;;;;;;;;;-10.00;99.90;;;;;;5064393;28;19908;-74
2021/12/23 05:52:38;;;;;;;;;;;-10.10;99.90;;;;;;5071730;28;19919;-74
2021/12/23 05:55:05;;;;;;;;;;;-10.10;99.90;;;;;;5079278;28;20351;-75
2021/12/23 05:57:31;;;;;;;;;;;-10.10;99.90;;;;;;5080010;28;19912;-74
2021/12/23 05:59:57;;;;;;;;;;;-10.20;99.90;;;;;;5062645;28;19931;-74
2021/12/23 06:02:22;;;;;;;;;;;-10.00;99.90;;;;;;5058037;28;19916;-74
2021/12/23 06:04:48;;;;;;;;;;;-10.10;99.90;;;;;;5080170;28;19916;-75
2021/12/23 06:07:14;;;;;;;;;;;-10.10;99.90;;;;;;5091743;28;19934;-75
2021/12/23 06:09:39;;;;;;;;;;;-10.10;99.90;;;;;;5082694;28;20363;-75
2021/12/23 06:12:05;;;;;;;;;;;-10.10;99.90;;;;;;5059676;28;19944;-76
2021/12/23 06:14:31;;;;;;;;;;;-10.10;99.90;;;;;;5067243;28;19943;-69
2021/12/23 06:16:56;;;;;;;;;;;-10.10;99.90;;;;;;5073374;28;20006;-69
2021/12/23 06:19:22;;;;;;;;;;;-10.00;99.90;;;;;;5073250;28;19962;-69
2021/12/23 06:21:47;;;;;;;;;;;-9.90;99.90;;;;;;5076742;28;20380;-69
2021/12/23 06:24:13;;;;;;;;;;;-9.90;99.90;;;;;;5050479;28;19921;-70
2021/12/23 06:26:39;;;;;;;;;;;-9.90;99.90;;;;;;5086035;28;20010;-69
2021/12/23 06:29:04;;;;;;;;;;;-9.90;99.90;;;;;;5072460;28;20700;-69
2021/12/23 06:31:30;;;;;;;;;;;-9.90;99.90;;;;;;5065890;28;20455;-69
2021/12/23 06:33:55;;;;;;;;;;;-9.90;99.90;;;;;;5065452;28;19912;-69
2021/12/23 06:36:21;;;;;;;;;;;-9.90;99.90;;;;;;5066232;28;19904;-68
2021/12/23 06:38:46;;;;;;;;;;;-9.90;99.90;;;;;;5085973;28;20259;-69
2021/12/23 06:41:12;;;;;;;;;;;-9.90;99.90;;;;;;5052681;28;19911;-69
2021/12/23 06:43:38;;;;;;;;;;;-9.90;99.90;;;;;;5063740;28;19937;-69
2021/12/23 06:46:04;;;;;;;;;;;-9.90;99.90;;;;;;5073545;28;19915;-69
2021/12/23 06:48:30;;;;;;;;;;;-9.90;99.90;;;;;;5083936;28;19912;-69
2021/12/23 06:50:56;;;;;;;;;;;-9.90;99.90;;;;;;5074662;28;20121;-69
2021/12/23 06:53:22;;;;;;;;;;;-9.90;99.90;;;;;;5065855;28;20341;-69
2021/12/23 06:55:50;;;;;;;;;;;-9.90;99.90;;;;;;5063800;28;19961;-69
2021/12/23 06:58:16;;;;;;;;;;;-10.00;99.90;;;;;;5072013;28;19918;-69
2021/12/23 07:00:41;;;;;;;;;;;-9.80;99.90;;;;;;5078815;28;19911;-69
2021/12/23 07:03:07;;;;;;;;;;;-9.30;99.90;;;;;;5043145;28;19916;-68
2021/12/23 07:05:33;;;;;;;;;;;-8.90;99.90;;;;;;5060202;28;19926;-69
2021/12/23 07:10:44;;;;;;;;;;;-8.70;99.90;;;;;;5059783;28;20367;-70
2021/12/23 07:13:10;;;;;;;;;;;-8.20;99.90;;;;;;5075487;28;19912;-69
2021/12/23 07:15:36;;;;;;;;;;;-7.90;99.90;;;;;;5081624;28;19904;-69
2021/12/23 07:18:02;;;;;;;;;;;-8.10;99.90;;;;;;5077010;28;20331;-69
2021/12/23 07:20:28;;;;;;;;;;;-8.60;99.90;;;;;;5072727;28;19964;-69
2021/12/23 07:22:54;;;;;;;;;;;-9.10;99.90;;;;;;5074220;28;19990;-69
2021/12/23 07:25:20;;;;;;;;;;;-9.20;99.90;;;;;;5074375;28;19996;-69
2021/12/23 07:27:46;;;;;;;;;;;-9.30;99.90;;;;;;5071700;28;19912;-69
2021/12/23 07:30:14;;;;;;;;;;;-9.30;99.90;;;;;;5079892;28;20339;-69
2021/12/23 07:32:39;;;;;;;;;;;-9.40;99.90;;;;;;5066544;28;19916;-69
2021/12/23 07:35:06;;;;;;;;;;;-9.20;99.90;;;;;;5072975;28;19919;-69
2021/12/23 07:37:31;;;;;;;;;;;-9.20;99.90;;;;;;5060854;28;19999;-69
2021/12/23 07:39:57;;;;;;;;;;;-9.40;99.90;;;;;;5074918;28;20003;-68
2021/12/23 07:42:25;;;;;;;;;;;-9.60;99.90;;;;;;5066280;28;19938;-69
2021/12/23 07:44:50;;;;;;;;;;;-9.80;99.90;;;;;;5060471;28;19919;-69
2021/12/23 07:47:17;;;;;;;;;;;-9.90;99.90;;;;;;5082440;28;19912;-68
2021/12/23 07:49:43;;;;;;;;;;;-9.90;99.90;;;;;;5060072;28;19914;-70
2021/12/23 07:52:08;;;;;;;;;;;-9.80;99.90;;;;;;5075907;28;19908;-69
2021/12/23 07:54:35;;;;;;;;;;;-9.80;99.90;;;;;;5064798;28;19908;-70
2021/12/23 07:57:00;;;;;;;;;;;-9.70;99.90;;;;;;5076320;28;19916;-69
2021/12/23 07:59:28;;;;;;;;;;;-9.30;99.90;;;;;;5072743;28;20112;-70
2021/12/23 08:01:54;;;;;;;;;;;-8.90;99.90;;;;;;5051936;28;19912;-69
2021/12/23 08:04:20;;;;;;;;;;;-8.30;99.90;;;;;;5056400;28;19927;-69
2021/12/23 08:06:51;;;;;;;;;;;-8.00;99.90;;;;;;5055083;28;20540;-69
2021/12/23 08:09:17;;;;;;;;;;;-7.60;99.90;;;;;;5051350;28;19920;-70
2021/12/23 08:11:42;;;;;;;;;;;-7.40;99.90;;;;;;5068404;28;19908;-70
2021/12/23 08:14:08;;;;;;;;;;;-7.70;99.90;;;;;;5070456;28;19908;-70
2021/12/23 08:16:33;;;;;;;;;;;-7.60;99.90;;;;;;5070351;28;20049;-70
2021/12/23 08:18:59;;;;;;;;;;;-7.60;99.90;;;;;;5077997;28;19911;-68
2021/12/23 08:21:25;;;;;;;;;;;-7.80;99.90;;;;;;5074412;28;19916;-68
2021/12/23 08:23:51;;;;;;;;;;;-8.00;99.90;;;;;;5065073;28;19927;-70
2021/12/23 08:26:21;;;;;;;;;;;-8.20;99.90;;;;;;5075002;28;19912;-70
2021/12/23 08:28:47;;;;;;;;;;;-8.10;99.90;;;;;;5061054;28;19970;-69
2021/12/23 08:31:12;;;;;;;;;;;-8.10;99.90;;;;;;5052219;28;19920;-70
2021/12/23 08:33:38;;;;;;;;;;;-8.40;99.90;;;;;;5069783;28;20410;-73
2021/12/23 08:36:04;;;;;;;;;;;-8.50;99.90;;;;;;5072495;28;21803;-69
2021/12/23 08:38:29;;;;;;;;;;;-8.40;99.90;;;;;;5071962;28;19927;-69
2021/12/23 08:40:56;;;;;;;;;;;-8.30;99.90;;;;;;5062005;28;19920;-69
2021/12/23 08:43:22;;;;;;;;;;;-8.30;99.90;;;;;;5064196;28;19916;-69
2021/12/23 08:45:48;;;;;;;;;;;-8.20;99.90;;;;;;5068196;28;20010;-68
2021/12/23 08:48:13;;;;;;;;;;;-8.10;99.90;;;;;;5076612;28;20002;-68
2021/12/23 08:50:39;;;;;;;;;;;-8.00;99.90;;;;;;5078047;28;20391;-69
2021/12/23 08:53:05;;;;;;;;;;;-7.60;99.90;;;;;;5054079;28;19931;-70
2021/12/23 08:55:33;;;;;;;;;;;-7.30;99.90;;;;;;5078289;28;20513;-68
2021/12/23 08:57:59;;;;;;;;;;;-6.80;99.90;;;;;;5066951;28;19921;-70
2021/12/23 09:00:26;;;;;;;;;;;-6.30;99.90;;;;;;5065235;28;19916;-68
2021/12/23 09:02:52;;;;;;;;;;;-6.10;99.90;;;;;;5064900;28;20299;-68
2021/12/23 09:05:19;;;;;;;;;;;-6.30;99.90;;;;;;5060634;28;20323;-67
2021/12/23 09:07:45;;;;;;;;;;;-6.50;99.90;;;;;;5062839;28;19921;-68
2021/12/23 09:10:11;;;;;;;;;;;-6.50;99.90;;;;;;5061792;28;19927;-68
2021/12/23 09:12:36;;;;;;;;;;;-6.40;99.90;;;;;;5064807;28;19916;-71
2021/12/23 09:15:02;;;;;;;;;;;-6.20;99.90;;;;;;5049486;28;19909;-72
2021/12/23 09:17:29;;;;;;;;;;;-5.80;99.90;;;;;;5062446;28;19916;-69
2021/12/23 09:19:54;;;;;;;;;;;-5.50;99.90;;;;;;5065354;28;20003;-67
2021/12/23 09:22:20;;;;;;;;;;;-5.40;99.90;;;;;;5057862;28;20404;-67
2021/12/23 09:24:47;;;;;;;;;;;-5.30;99.90;;;;;;5066177;28;19912;-68
2021/12/23 09:34:55;;;;;;;;;;;-5.20;99.90;;;;;;5067439;28;19927;-68
2021/12/23 09:37:22;;;;;;;;;;;-5.20;99.90;;;;;;5066095;28;19912;-68
2021/12/23 09:39:53;;;;;;;;;;;-5.20;99.90;;;;;;5066743;28;19924;-69
2021/12/23 09:42:26;;;;;;;;;;;-5.10;99.90;;;;;;5071433;28;20308;-68
2021/12/23 09:44:58;;;;;;;;;;;-5.00;99.90;;;;;;5052784;28;19916;-67
2021/12/23 09:47:28;;;;;;;;;;;-5.00;99.90;;;;;;5063594;28;19982;-68
2021/12/23 09:49:54;;;;;;;;;;;-5.00;99.90;;;;;;5069358;28;19974;-67
2021/12/23 09:52:21;;;;;;;;;;;-5.00;99.90;;;;;;5066913;28;19916;-68
2021/12/23 09:54:46;;;;;;;;;;;-5.10;99.90;;;;;;5066645;28;20013;-72
2021/12/23 09:57:12;;;;;;;;;;;-4.60;99.90;;;;;;5049818;28;20334;-72
2021/12/23 09:59:40;;;;;;;;;;;-4.30;99.90;;;;;;5063536;28;19999;-69
2021/12/23 10:02:06;;;;;;;;;;;-4.40;99.90;;;;;;5067622;28;19916;-73
2021/12/23 10:04:31;;;;;;;;;;;-4.40;99.90;;;;;;5066207;28;19966;-71
2021/12/23 10:06:58;;;;;;;;;;;-4.50;99.90;;;;;;5064673;28;19920;-70
2021/12/23 10:09:42;;;;;;;;;;;-4.30;99.90;;;;;;5047599;28;19916;-70
2021/12/23 10:31:20;;;;;;;;;;;-5.50;99.90;;;;;;5065858;28;20436;-71
2021/12/23 10:37:05;;;;;;;;;;;-5.60;99.90;;;;;;5063858;28;19919;-70
2021/12/23 10:39:43;;;;;;;;;;;-5.60;99.90;;;;;;4979879;28;19928;-70
2021/12/23 10:42:19;;;;;;;;;;;-5.60;99.90;;;;;;4979860;28;19922;-70
2021/12/23 10:44:52;;;;;;;;;;;-5.60;99.90;;;;;;5030073;28;19916;-72
2021/12/23 10:47:39;;;;;;;;;;;-5.50;99.90;;;;;;5073755;28;19916;-69
2021/12/23 10:50:17;;;;;;;;;;;-5.40;99.90;;;;;;5071459;28;19915;-73
2021/12/23 10:53:01;;;;;;;;;;;-5.30;99.90;;;;;;5066002;28;19924;-67
2021/12/23 11:00:34;;;;;;;;;;;-4.90;99.90;;;;;;5074172;28;19959;-71
2021/12/23 11:03:03;;;;;;;;;;;-4.80;99.90;;;;;;5071372;28;20285;-70
2021/12/23 11:05:34;;;;;;;;;;;-5.00;99.90;;;;;;5071163;28;19996;-69
2021/12/23 11:08:22;;;;;;;;;;;-5.10;99.90;;;;;;5072925;28;19947;-69
2021/12/23 11:38:11;;;;;;;;;;;-3.10;99.90;;;;;;5062635;28;20328;-69
2021/12/23 11:45:44;;;;;;;;;;;-2.40;99.90;;;;;;5065062;28;19969;-76
2021/12/23 11:48:10;;;;;;;;;;;-2.10;99.90;;;;;;5060246;28;19912;-71
2021/12/23 11:50:52;;;;;;;;;;;-2.00;99.90;;;;;;5043709;28;20007;-71
2021/12/23 11:53:18;;;;;;;;;;;-2.00;99.90;;;;;;5062599;28;19931;-73
2021/12/23 11:55:44;;;;;;;;;;;-2.20;99.90;;;;;;5061528;28;20335;-70
2021/12/23 11:58:10;;;;;;;;;;;-2.00;99.90;;;;;;5064268;28;19917;-71
2021/12/23 12:00:44;;;;;;;;;;;-2.00;99.90;;;;;;5048672;28;19913;-71
2021/12/23 12:03:11;;;;;;;;;;;-2.60;99.90;;;;;;5062306;28;20010;-71
2021/12/23 12:05:37;;;;;;;;;;;-3.30;99.90;;;;;;5060904;28;19920;-70
2021/12/23 12:08:06;;;;;;;;;;;-4.00;99.90;;;;;;5064298;28;19928;-71
2021/12/23 12:10:33;;;;;;;;;;;-4.60;99.90;;;;;;5066747;28;19912;-72
2021/12/23 12:13:00;;;;;;;;;;;-5.20;99.90;;;;;;5046050;28;19923;-72
2021/12/23 12:15:38;;;;;;;;;;;-5.70;99.90;;;;;;5062168;28;19912;-70
2021/12/23 12:18:05;;;;;;;;;;;-6.10;99.90;;;;;;5063878;28;19923;-70
2021/12/23 12:20:37;;;;;;;;;;;-6.50;99.90;;;;;;5056343;28;19966;-71
2021/12/23 12:23:02;;;;;;;;;;;-6.70;99.90;;;;;;5046531;28;20039;-71
2021/12/23 12:25:28;;;;;;;;;;;-6.80;99.90;;;;;;5059041;28;19916;-72
2021/12/23 12:27:57;;;;;;;;;;;-6.90;99.90;;;;;;5061769;28;21027;-71
2021/12/23 12:30:41;;;;;;;;;;;-6.90;99.90;;;;;;5062048;28;19916;-72
2021/12/23 12:33:12;;;;;;;;;;;-7.00;99.90;;;;;;5063698;28;19920;-70
2021/12/23 12:35:39;;;;;;;;;;;-7.10;99.90;;;;;;5061024;28;20613;-71
2021/12/23 12:38:12;;;;;;;;;;;-7.20;99.90;;;;;;5059790;28;19919;-69
2021/12/23 12:40:57;;;;;;;;;;;-7.40;99.90;;;;;;5058248;28;19958;-70
2021/12/23 12:43:40;;;;;;;;;;;-7.50;99.90;;;;;;5064278;28;19912;-72
2021/12/23 12:46:06;;;;;;;;;;;-7.50;99.90;;;;;;5063370;28;20713;-69
2021/12/23 12:48:50;;;;;;;;;;;-7.50;99.90;;;;;;5058815;28;20003;-70
2021/12/23 12:51:19;;;;;;;;;;;-7.40;99.90;;;;;;5059898;28;19908;-70
2021/12/23 12:54:14;;;;;;;;;;;-7.40;99.90;;;;;;5052442;28;19917;-70
2021/12/23 12:56:47;;;;;;;;;;;-7.40;99.90;;;;;;5058709;28;20638;-72
2021/12/23 12:59:13;;;;;;;;;;;-7.50;99.90;;;;;;5065551;28;19958;-70
2021/12/23 13:01:42;;;;;;;;;;;-7.50;99.90;;;;;;5070736;28;19920;-71
2021/12/23 13:04:27;;;;;;;;;;;-7.40;99.90;;;;;;5071645;28;19919;-70
2021/12/23 13:06:53;;;;;;;;;;;-7.50;99.90;;;;;;5065564;28;19986;-73
2021/12/23 13:09:42;;;;;;;;;;;-7.50;99.90;;;;;;5059341;28;19927;-70
2021/12/23 13:12:07;;;;;;;;;;;-7.60;99.90;;;;;;5063206;28;19916;-72
2021/12/23 13:14:44;;;;;;;;;;;-7.60;99.90;;;;;;5045620;28;20003;-72
2021/12/23 13:17:10;;;;;;;;;;;-7.70;99.90;;;;;;5058977;28;20307;-68
2021/12/23 13:19:36;;;;;;;;;;;-7.70;99.90;;;;;;5062581;28;20007;-75
2021/12/23 13:22:05;;;;;;;;;;;-7.80;99.90;;;;;;5037624;28;20364;-73
2021/12/23 13:24:32;;;;;;;;;;;-7.80;99.90;;;;;;5043844;28;20321;-69
2021/12/23 13:26:58;;;;;;;;;;;-7.70;99.90;;;;;;5061167;28;19920;-69
2021/12/23 13:29:28;;;;;;;;;;;-7.90;99.90;;;;;;5062411;28;19924;-69
2021/12/23 13:31:54;;;;;;;;;;;-7.80;99.90;;;;;;5059819;28;19943;-67
2021/12/23 13:34:24;;;;;;;;;;;-7.90;99.90;;;;;;5061389;28;20248;-68
2021/12/23 13:36:51;;;;;;;;;;;-7.80;99.90;;;;;;5050256;28;20046;-69
2021/12/23 13:39:21;;;;;;;;;;;-7.80;99.90;;;;;;5060548;28;19912;-67
2021/12/23 13:41:49;;;;;;;;;;;-7.90;99.90;;;;;;5066644;28;19931;-67
2021/12/23 13:44:15;;;;;;;;;;;-7.90;99.90;;;;;;5067077;28;20419;-69
2021/12/23 13:47:00;;;;;;;;;;;-7.90;99.90;;;;;;5069887;28;20007;-69
2021/12/23 13:49:34;;;;;;;;;;;-7.90;99.90;;;;;;5067268;28;20373;-69
2021/12/23 13:51:59;;;;;;;;;;;-7.90;99.90;;;;;;5069472;28;19995;-68
2021/12/23 13:54:30;;;;;;;;;;;-7.90;99.90;;;;;;5067973;28;19990;-67
2021/12/23 13:56:57;;;;;;;;;;;-7.90;99.90;;;;;;5060529;28;19935;-66
2021/12/23 13:59:25;;;;;;;;;;;-7.90;99.90;;;;;;5060979;28;20418;-68
2021/12/23 14:01:53;;;;;;;;;;;-7.90;99.90;;;;;;5060254;28;19970;-67
2021/12/23 14:04:34;;;;;;;;;;;-7.90;99.90;;;;;;5068721;28;19912;-65
2021/12/23 14:07:00;;;;;;;;;;;-7.90;99.90;;;;;;5064394;28;20019;-67
2021/12/23 14:09:31;;;;;;;;;;;-7.90;99.90;;;;;;5067495;28;20419;-68
2021/12/23 14:11:57;;;;;;;;;;;-7.90;99.90;;;;;;5063068;28;20370;-69
2021/12/23 14:14:23;;;;;;;;;;;-7.80;99.90;;;;;;5040690;28;20380;-68
2021/12/23 14:16:49;;;;;;;;;;;-8.00;99.90;;;;;;5067210;28;19934;-69
2021/12/23 14:19:24;;;;;;;;;;;-8.00;99.90;;;;;;5068100;28;20379;-67
2021/12/23 14:24:34;;;;;;;;;;;-8.10;99.90;;;;;;5061650;28;19922;-66
2021/12/23 14:27:00;;;;;;;;;;;-8.10;99.90;;;;;;5066717;28;19920;-67
2021/12/23 14:29:30;;;;;;;;;;;-8.20;99.90;;;;;;5066552;28;19913;-67
2021/12/23 14:31:56;;;;;;;;;;;-8.20;99.90;;;;;;5067311;28;19920;-68
2021/12/23 14:34:27;;;;;;;;;;;-8.20;99.90;;;;;;5067916;28;20351;-67
2021/12/23 14:36:54;;;;;;;;;;;-8.20;99.90;;;;;;5063902;28;19965;-68
2021/12/23 14:39:26;;;;;;;;;;;-8.30;99.90;;;;;;5066854;28;20461;-68
2021/12/23 14:41:55;;;;;;;;;;;-8.20;99.90;;;;;;5062274;28;20463;-68
2021/12/23 14:44:21;;;;;;;;;;;-8.20;99.90;;;;;;5044443;28;20073;-68
2021/12/23 14:46:55;;;;;;;;;;;-8.20;99.90;;;;;;5063953;28;19924;-68
2021/12/23 14:52:21;;;;;;;;;;;-8.40;99.90;;;;;;5050590;28;19915;-73
2021/12/23 14:55:05;;;;;;;;;;;-8.10;99.90;;;;;;5058457;28;19921;-74
2021/12/23 14:57:36;;;;;;;;;;;-8.20;99.90;;;;;;5046698;28;19916;-70
2021/12/23 15:00:08;;;;;;;;;;;-8.20;99.90;;;;;;5060871;28;19916;-71
2021/12/23 15:02:33;;;;;;;;;;;-8.30;99.90;;;;;;5065141;28;19912;-70
2021/12/23 15:05:02;;;;;;;;;;;-8.20;99.90;;;;;;5067414;28;19927;-71
2021/12/23 15:07:43;;;;;;;;;;;-8.20;99.90;;;;;;5067375;28;19912;-69
2021/12/23 15:10:09;;;;;;;;;;;-8.20;99.90;;;;;;5063097;28;20283;-70
2021/12/23 15:12:35;;;;;;;;;;;-8.30;99.90;;;;;;5065858;28;19917;-70
2021/12/23 15:15:05;;;;;;;;;;;-8.30;99.90;;;;;;5066488;28;19912;-71
2021/12/23 15:17:40;;;;;;;;;;;-8.20;99.90;;;;;;5066815;28;19931;-70
2021/12/23 15:20:28;;;;;;;;;;;-8.20;99.90;;;;;;5063325;28;19946;-70
2021/12/23 15:22:56;;;;;;;;;;;-8.30;99.90;;;;;;5065618;28;19912;-71
2021/12/23 15:25:32;;;;;;;;;;;-8.30;99.90;;;;;;5065472;28;19954;-72
2021/12/23 15:27:57;;;;;;;;;;;-8.30;99.90;;;;;;5068737;28;20340;-70
2021/12/23 15:30:28;;;;;;;;;;;-8.30;99.90;;;;;;5043099;28;19991;-70
2021/12/23 15:32:55;;;;;;;;;;;-8.30;99.90;;;;;;5055484;28;19963;-70
2021/12/23 15:35:23;;;;;;;;;;;-8.30;99.90;;;;;;5064948;28;20450;-70
2021/12/23 15:37:50;;;;;;;;;;;-8.30;99.90;;;;;;5054097;28;19912;-70
2021/12/23 15:40:29;;;;;;;;;;;-8.20;99.90;;;;;;5060551;28;19931;-70
2021/12/23 15:42:55;;;;;;;;;;;-8.20;99.90;;;;;;5070982;28;19916;-70
2021/12/23 15:45:21;;;;;;;;;;;-8.20;99.90;;;;;;5069681;28;20254;-70
2021/12/23 15:47:49;;;;;;;;;;;-8.10;99.90;;;;;;5061865;28;19970;-69